Richardson's Hourly Summary for Sunday, July 8, 2018
Hour Temp
(f)
RH
(%)
Solar Rad.
(MJ/m2)
Rainfall
(in)
Wind
(mph)
7/8/2018 12:00 AM 84 54 0 0 3.84
7/8/2018 1:00 AM 81 59 0 0 3.22
7/8/2018 2:00 AM 79 67 0 0 1.27
7/8/2018 3:00 AM 78 73 0 0 1.16
7/8/2018 4:00 AM 77 76 0 0 0.21
7/8/2018 5:00 AM 76 77 0 0 0.04
7/8/2018 6:00 AM 76 81 0 0 0.62
7/8/2018 7:00 AM 75 82 0.04 0 1.1
7/8/2018 8:00 AM 77 76 0.49 0 1.84
7/8/2018 9:00 AM 79 70 1.04 0 4.02
7/8/2018 10:00 AM 82 59 1.75 0 3.44
7/8/2018 11:00 AM 84 54 2.32 0 3.92
7/8/2018 12:00 PM 87 46 3.06 0 4.08
7/8/2018 1:00 PM 89 45 3.02 0 5.33
7/8/2018 2:00 PM 91 42 3.38 0 5.05
7/8/2018 3:00 PM 92 35 2.73 0 5.85
7/8/2018 4:00 PM 93 33 2.47 0 7.13
7/8/2018 5:00 PM 93 32 2.07 0 6.11
7/8/2018 6:00 PM 93 32 1.84 0 6.26
7/8/2018 7:00 PM 90 44 1.23 0 6.05
7/8/2018 8:00 PM 88 47 0.2 0 5.72
7/8/2018 9:00 PM 85 54 0.04 0 4.58
7/8/2018 10:00 PM 82 58 0 0 2.82
7/8/2018 11:00 PM 82 60 0 0 2.17
Data Summary 83 56 25.68 0.00 3.58